createdAt,value
2018-05-18T00:01:37.294Z,88.03
2018-05-18T00:04:03.110Z,87.69
2018-05-18T00:06:29.520Z,87.76
2018-05-18T00:08:55.349Z,87.87
2018-05-18T00:11:21.158Z,88.25
2018-05-18T00:13:46.949Z,88.39
2018-05-18T00:16:12.718Z,88.24
2018-05-18T00:18:38.568Z,87.78
2018-05-18T00:21:04.355Z,88.41
2018-05-18T00:23:30.183Z,87.89
2018-05-18T00:25:56.720Z,87.91
2018-05-18T00:28:22.689Z,87.92
2018-05-18T00:30:48.487Z,87.78
2018-05-18T00:33:14.304Z,87.37
2018-05-18T00:35:40.056Z,87.54
2018-05-18T00:38:05.861Z,87.27
2018-05-18T00:40:31.637Z,87.32
2018-05-18T00:42:57.430Z,87.78
2018-05-18T00:45:23.228Z,87.64
2018-05-18T00:47:49.288Z,87.49
2018-05-18T00:50:15.085Z,87.99
2018-05-18T00:52:40.880Z,88.13
2018-05-18T00:55:19.001Z,88.51
2018-05-18T00:57:44.810Z,87.64
2018-05-18T01:00:10.614Z,87.50
2018-05-18T01:02:36.396Z,88.14
2018-05-18T01:05:02.223Z,88.39
2018-05-18T01:07:28.010Z,87.80
2018-05-18T01:09:53.801Z,87.45
2018-05-18T01:12:19.605Z,87.82
2018-05-18T01:14:45.378Z,87.99
2018-05-18T01:17:11.145Z,87.95
2018-05-18T01:19:36.971Z,88.19
2018-05-18T01:22:02.763Z,88.19
2018-05-18T01:24:28.549Z,87.79
2018-05-18T01:26:54.341Z,88.44
2018-05-18T01:29:20.109Z,88.24
2018-05-18T01:31:45.902Z,88.11
2018-05-18T01:34:11.920Z,88.38
2018-05-18T01:36:37.719Z,88.79
2018-05-18T01:39:04.405Z,88.39
2018-05-18T01:41:30.396Z,88.28
2018-05-18T01:43:56.186Z,88.52
2018-05-18T01:46:21.965Z,88.77
2018-05-18T01:48:47.782Z,89.29
2018-05-18T01:51:13.563Z,89.07
2018-05-18T01:53:39.363Z,89.00
2018-05-18T01:56:05.146Z,88.87
2018-05-18T01:58:30.959Z,89.04
2018-05-18T02:00:56.757Z,89.57
2018-05-18T02:03:22.565Z,89.51
2018-05-18T02:05:48.376Z,89.80
2018-05-18T02:08:14.156Z,89.89
2018-05-18T02:10:39.952Z,89.45
2018-05-18T02:13:05.737Z,89.62
2018-05-18T02:15:31.515Z,89.40
2018-05-18T02:17:57.309Z,89.81
2018-05-18T02:20:23.106Z,90.09
2018-05-18T02:22:48.899Z,90.06
2018-05-18T02:25:14.703Z,89.79
2018-05-18T02:27:40.564Z,90.41
2018-05-18T02:30:06.304Z,90.02
2018-05-18T02:32:32.097Z,90.29
2018-05-18T02:34:57.890Z,90.51
2018-05-18T02:37:23.679Z,90.63
2018-05-18T02:39:49.493Z,91.10
2018-05-18T02:42:15.334Z,90.63
2018-05-18T02:44:41.138Z,90.66
2018-05-18T02:47:06.949Z,90.50
2018-05-18T02:49:32.750Z,90.33
2018-05-18T02:51:58.526Z,90.46
2018-05-18T02:54:24.307Z,90.78
2018-05-18T02:56:50.092Z,91.21
2018-05-18T02:59:15.886Z,91.13
2018-05-18T03:01:41.678Z,91.15
2018-05-18T03:04:07.469Z,90.75
2018-05-18T03:06:33.250Z,91.01
2018-05-18T03:08:59.040Z,90.96
2018-05-18T03:11:24.849Z,90.70
2018-05-18T03:13:50.626Z,90.76
2018-05-18T03:16:16.438Z,90.89
2018-05-18T03:18:42.257Z,91.51
2018-05-18T03:21:08.142Z,91.14
2018-05-18T03:23:33.833Z,92.29
2018-05-18T03:25:59.613Z,91.33
2018-05-18T03:28:25.433Z,90.81
2018-05-18T03:30:51.210Z,90.57
2018-05-18T03:33:16.995Z,91.00
2018-05-18T03:35:42.798Z,90.92
2018-05-18T03:38:08.584Z,90.56
2018-05-18T03:40:34.369Z,91.14
2018-05-18T03:43:00.153Z,91.09
2018-05-18T03:45:25.925Z,90.65
2018-05-18T03:47:51.730Z,90.47
2018-05-18T03:50:17.509Z,90.78
2018-05-18T03:52:43.292Z,90.70
2018-05-18T03:55:09.170Z,90.87
2018-05-18T03:57:34.882Z,90.78
2018-05-18T04:00:00.696Z,90.49
2018-05-18T04:05:35.921Z,90.56
2018-05-18T04:08:14.106Z,90.58
2018-05-18T04:10:39.918Z,90.78
2018-05-18T04:13:05.719Z,90.75
2018-05-18T04:15:31.733Z,90.73
2018-05-18T04:17:57.524Z,90.32
2018-05-18T04:20:23.306Z,90.15
2018-05-18T04:22:49.101Z,90.67
2018-05-18T04:25:14.886Z,90.15
2018-05-18T04:27:40.665Z,89.79
2018-05-18T04:30:06.495Z,89.76
2018-05-18T04:32:32.265Z,89.97
2018-05-18T04:34:58.090Z,90.00
2018-05-18T04:37:23.867Z,90.05
2018-05-18T04:39:49.648Z,89.78
2018-05-18T04:42:15.436Z,89.90
2018-05-18T04:44:41.211Z,89.60
2018-05-18T04:47:07.033Z,90.15
2018-05-18T04:49:32.821Z,89.47
2018-05-18T04:51:58.601Z,89.29
2018-05-18T04:54:24.386Z,89.34
2018-05-18T04:56:50.161Z,89.33
2018-05-18T04:59:15.946Z,89.32
2018-05-18T05:01:41.750Z,88.64
2018-05-18T05:04:07.595Z,88.74
2018-05-18T05:06:33.377Z,89.19
2018-05-18T05:08:59.189Z,89.15
2018-05-18T05:11:24.982Z,88.86
2018-05-18T05:13:50.773Z,88.76
2018-05-18T05:16:16.584Z,88.88
2018-05-18T05:18:42.365Z,88.55
2018-05-18T05:21:08.161Z,88.29
2018-05-18T05:23:34.254Z,88.60
2018-05-18T05:26:00.058Z,88.97
2018-05-18T05:28:25.837Z,88.68
2018-05-18T05:30:51.641Z,88.38
2018-05-18T05:33:17.421Z,88.77
2018-05-18T05:35:43.198Z,88.86
2018-05-18T05:38:09.000Z,88.21
2018-05-18T05:40:34.782Z,89.03
2018-05-18T05:43:00.557Z,87.67
2018-05-18T05:45:26.365Z,87.62
2018-05-18T05:47:52.142Z,88.03
2018-05-18T05:50:17.945Z,87.75
2018-05-18T05:52:43.791Z,87.59
2018-05-18T05:55:09.515Z,87.68
2018-05-18T05:57:35.329Z,87.07
2018-05-18T06:08:13.512Z,86.27
2018-05-18T06:10:39.469Z,86.67
2018-05-18T06:13:05.281Z,86.41
2018-05-18T06:15:31.073Z,86.00
2018-05-18T06:17:56.876Z,85.67
2018-05-18T06:20:22.672Z,85.20
2018-05-18T06:22:48.480Z,84.99
2018-05-18T06:25:14.309Z,85.38
2018-05-18T06:27:40.414Z,86.08
2018-05-18T06:30:06.228Z,86.45
2018-05-18T06:32:32.014Z,85.68
2018-05-18T06:34:57.938Z,85.57
2018-05-18T06:37:23.635Z,85.53
2018-05-18T06:39:49.423Z,85.77
2018-05-18T06:42:15.219Z,85.95
2018-05-18T06:44:40.998Z,85.45
2018-05-18T06:47:06.798Z,85.09
2018-05-18T06:49:32.594Z,85.76
2018-05-18T06:51:58.394Z,85.82
2018-05-18T06:54:24.219Z,86.46
2018-05-18T06:56:50.027Z,86.49
2018-05-18T06:59:15.810Z,86.74
2018-05-18T07:01:41.645Z,85.74
2018-05-18T07:04:07.455Z,86.34
2018-05-18T07:06:33.267Z,87.21
2018-05-18T07:08:59.094Z,87.27
2018-05-18T07:11:24.875Z,87.25
2018-05-18T07:13:50.666Z,87.28
2018-05-18T07:16:16.488Z,86.72
2018-05-18T07:18:42.274Z,86.48
2018-05-18T07:21:08.114Z,86.29
2018-05-18T07:23:33.908Z,86.10
2018-05-18T07:25:59.721Z,86.86
2018-05-18T07:28:25.524Z,86.99
2018-05-18T07:30:51.321Z,86.90
2018-05-18T07:33:17.135Z,87.15
2018-05-18T07:35:42.966Z,86.71
2018-05-18T07:38:08.766Z,86.57
2018-05-18T07:40:34.587Z,86.36
2018-05-18T07:43:00.509Z,86.42
2018-05-18T07:45:26.302Z,86.42
2018-05-18T07:47:52.078Z,86.55
2018-05-18T07:50:17.914Z,85.63
2018-05-18T07:52:43.710Z,85.32
2018-05-18T07:55:09.502Z,84.96
2018-05-18T07:57:35.331Z,85.08
2018-05-18T08:00:01.137Z,86.03
2018-05-18T08:02:26.926Z,85.44
2018-05-18T08:04:52.708Z,85.45
2018-05-18T08:07:18.521Z,85.14
2018-05-18T08:09:44.314Z,84.65
2018-05-18T08:12:10.092Z,85.49
2018-05-18T08:14:35.882Z,84.32
2018-05-18T08:17:01.678Z,84.97
2018-05-18T08:19:27.494Z,84.89
2018-05-18T08:21:53.273Z,84.23
2018-05-18T08:24:19.062Z,84.57
2018-05-18T08:26:57.247Z,84.02
2018-05-18T08:29:34.317Z,84.16
2018-05-18T08:32:00.153Z,83.73
2018-05-18T08:34:25.941Z,84.13
2018-05-18T08:36:51.733Z,83.93
2018-05-18T08:39:17.526Z,83.37
2018-05-18T08:41:43.321Z,83.28
2018-05-18T08:44:16.210Z,83.61
2018-05-18T08:46:42.266Z,83.07
2018-05-18T08:49:08.066Z,82.93
2018-05-18T08:51:33.865Z,82.56
2018-05-18T08:53:59.667Z,82.37
2018-05-18T08:56:25.469Z,82.44
2018-05-18T08:58:51.270Z,82.30
2018-05-18T09:01:17.097Z,81.49
2018-05-18T09:03:43.300Z,81.28
2018-05-18T09:06:09.105Z,81.22
2018-05-18T09:08:34.893Z,80.94
2018-05-18T09:11:00.704Z,80.53
2018-05-18T09:13:26.490Z,80.33
2018-05-18T09:15:52.283Z,80.53
2018-05-18T09:18:18.103Z,78.93
2018-05-18T09:20:43.895Z,79.30
2018-05-18T09:23:09.953Z,79.43
2018-05-18T09:25:35.759Z,79.39
2018-05-18T09:28:01.561Z,79.18
2018-05-18T09:30:27.365Z,79.28
2018-05-18T09:32:53.154Z,78.75
2018-05-18T09:35:18.946Z,78.42
2018-05-18T09:37:44.742Z,78.47
2018-05-18T09:40:10.548Z,77.81
2018-05-18T09:42:36.326Z,77.56
2018-05-18T09:45:02.253Z,78.28
2018-05-18T09:47:27.954Z,77.69
2018-05-18T09:49:53.766Z,76.85
2018-05-18T09:52:19.576Z,77.23
2018-05-18T09:54:45.433Z,76.96
2018-05-18T09:57:11.167Z,76.99
2018-05-18T10:02:02.839Z,76.62
2018-05-18T10:04:28.626Z,76.91
2018-05-18T10:06:54.791Z,76.48
2018-05-18T10:09:20.598Z,76.99
2018-05-18T10:11:46.389Z,76.67
2018-05-18T10:14:12.193Z,76.58
2018-05-18T10:16:37.981Z,76.52
2018-05-18T10:19:03.772Z,76.29
2018-05-18T10:21:29.565Z,76.02
2018-05-18T10:23:55.351Z,76.08
2018-05-18T10:26:21.171Z,75.06
2018-05-18T10:28:46.967Z,75.14
2018-05-18T10:31:12.761Z,75.61
2018-05-18T10:33:38.574Z,75.47
2018-05-18T10:36:04.374Z,75.14
2018-05-18T10:38:30.157Z,75.90
2018-05-18T10:40:55.961Z,75.93
2018-05-18T10:43:21.745Z,73.99
2018-05-18T10:45:47.818Z,76.20
2018-05-18T10:48:13.612Z,77.15
2018-05-18T10:50:39.406Z,75.47
2018-05-18T10:53:05.316Z,76.04
2018-05-18T10:55:31.113Z,74.43
2018-05-18T10:57:56.907Z,75.14
2018-05-18T11:00:22.717Z,74.35
2018-05-18T11:02:48.501Z,74.75
2018-05-18T11:05:14.283Z,76.01
2018-05-18T11:07:40.226Z,74.84
2018-05-18T11:10:06.010Z,73.72
2018-05-18T11:12:31.801Z,74.54
2018-05-18T11:14:57.598Z,74.64
2018-05-18T11:17:23.384Z,75.58
2018-05-18T11:19:49.187Z,74.07
2018-05-18T11:22:14.965Z,74.43
2018-05-18T11:24:40.778Z,74.96
2018-05-18T11:27:06.549Z,75.09
2018-05-18T11:29:32.333Z,75.57
2018-05-18T11:31:58.129Z,75.43
2018-05-18T11:34:24.250Z,74.52
2018-05-18T11:36:50.050Z,75.48
2018-05-18T11:39:15.880Z,73.17
2018-05-18T11:41:41.698Z,73.47
2018-05-18T11:44:07.508Z,73.89
2018-05-18T11:46:33.320Z,73.50
2018-05-18T11:48:59.142Z,73.65
2018-05-18T11:51:24.940Z,72.43
2018-05-18T11:53:50.725Z,73.73
2018-05-18T11:56:16.524Z,73.83
2018-05-18T11:58:42.325Z,74.74
2018-05-18T12:01:08.120Z,74.96
2018-05-18T12:03:33.927Z,75.61
2018-05-18T12:05:59.709Z,75.16
2018-05-18T12:08:25.580Z,75.56
2018-05-18T12:10:51.315Z,74.06
2018-05-18T12:13:17.090Z,75.74
2018-05-18T12:15:42.889Z,74.79
2018-05-18T12:18:08.684Z,75.45
2018-05-18T12:20:34.486Z,74.62
2018-05-18T12:23:00.281Z,74.14
2018-05-18T12:25:26.106Z,73.83
2018-05-18T12:27:51.941Z,75.03
2018-05-18T12:30:17.924Z,73.60
2018-05-18T12:32:44.000Z,73.98
2018-05-18T12:35:09.809Z,74.29
2018-05-18T12:37:35.594Z,73.26
2018-05-18T12:40:01.410Z,72.85
2018-05-18T12:42:27.213Z,73.75
2018-05-18T12:44:53.235Z,73.69
2018-05-18T12:47:19.052Z,72.75
2018-05-18T12:49:44.843Z,72.74
2018-05-18T12:52:10.712Z,73.08
2018-05-18T12:54:36.481Z,74.31
2018-05-18T12:57:02.317Z,74.59
2018-05-18T12:59:28.179Z,73.59
2018-05-18T13:01:53.902Z,75.03
2018-05-18T13:04:19.737Z,75.06
2018-05-18T13:06:45.532Z,74.15
2018-05-18T13:09:11.341Z,74.62
2018-05-18T13:11:37.161Z,75.09
2018-05-18T13:14:02.970Z,74.04
2018-05-18T13:16:28.786Z,74.37
2018-05-18T13:18:54.598Z,73.52
2018-05-18T13:21:20.424Z,73.40
2018-05-18T13:23:46.234Z,73.66
2018-05-18T13:26:12.078Z,75.12
2018-05-18T13:28:37.915Z,74.43
2018-05-18T13:31:03.721Z,73.50
2018-05-18T13:33:29.510Z,73.33
2018-05-18T13:35:55.354Z,74.22
2018-05-18T13:38:21.162Z,74.05
2018-05-18T13:40:46.962Z,73.20
2018-05-18T13:43:12.781Z,73.00
2018-05-18T13:45:38.594Z,73.84
2018-05-18T13:48:04.412Z,71.82
2018-05-18T13:50:30.212Z,72.10
2018-05-18T13:53:02.935Z,72.42
2018-05-18T13:55:29.094Z,72.86
2018-05-18T13:57:54.897Z,72.71
2018-05-18T14:00:20.696Z,72.88
2018-05-18T14:02:46.514Z,73.74
2018-05-18T14:05:12.270Z,72.39
2018-05-18T14:07:38.087Z,72.32
2018-05-18T14:10:03.879Z,72.08
2018-05-18T14:12:29.673Z,72.80
2018-05-18T14:14:55.477Z,73.01
2018-05-18T14:17:21.265Z,72.56
2018-05-18T14:19:47.072Z,73.29
2018-05-18T14:22:12.918Z,72.18
2018-05-18T14:24:38.710Z,72.62
2018-05-18T14:27:04.532Z,72.03
2018-05-18T14:29:30.323Z,72.83
2018-05-18T14:31:56.232Z,72.70
2018-05-18T14:34:21.959Z,72.94
2018-05-18T14:36:47.756Z,72.38
2018-05-18T14:39:13.590Z,72.23
2018-05-18T14:41:39.370Z,72.88
2018-05-18T14:44:05.200Z,72.14
2018-05-18T14:46:31.260Z,71.97
2018-05-18T14:48:57.059Z,71.88
2018-05-18T14:51:22.841Z,71.62
2018-05-18T14:53:48.769Z,71.03
2018-05-18T14:56:14.574Z,71.55
2018-05-18T14:58:40.485Z,71.60
2018-05-18T15:01:06.178Z,72.43
2018-05-18T15:03:31.970Z,72.31
2018-05-18T15:05:57.786Z,71.12
2018-05-18T15:08:23.604Z,72.34
2018-05-18T15:10:49.396Z,70.82
2018-05-18T15:13:15.195Z,72.29
2018-05-18T15:15:40.997Z,72.84
2018-05-18T15:18:06.791Z,73.14
2018-05-18T15:20:32.637Z,70.94
2018-05-18T15:22:58.414Z,71.57
2018-05-18T15:25:24.237Z,71.08
2018-05-18T15:27:50.027Z,70.39
2018-05-18T15:30:15.805Z,70.95
2018-05-18T15:32:41.613Z,70.86
2018-05-18T15:35:07.395Z,71.93
2018-05-18T15:37:33.231Z,71.63
2018-05-18T15:39:59.039Z,71.56
2018-05-18T15:42:24.824Z,72.66
2018-05-18T15:44:50.909Z,71.59
2018-05-18T15:47:16.729Z,72.67
2018-05-18T15:49:42.526Z,73.58
2018-05-18T15:52:08.343Z,72.65
2018-05-18T15:54:34.137Z,72.65
2018-05-18T15:56:59.926Z,71.70
2018-05-18T15:59:25.822Z,72.25
2018-05-18T16:01:51.638Z,72.21
2018-05-18T16:04:17.485Z,72.84
2018-05-18T16:06:43.262Z,72.73
2018-05-18T16:09:09.054Z,73.10
2018-05-18T16:11:34.841Z,73.59
2018-05-18T16:14:00.631Z,73.86
2018-05-18T16:16:26.450Z,74.45
2018-05-18T16:18:52.266Z,73.25
2018-05-18T16:21:18.083Z,73.89
2018-05-18T16:23:43.873Z,74.44
2018-05-18T16:26:09.682Z,74.50
2018-05-18T16:28:35.465Z,74.56
2018-05-18T16:31:01.267Z,74.01
2018-05-18T16:33:28.025Z,73.63
2018-05-18T16:35:53.920Z,74.14
2018-05-18T16:38:19.783Z,73.63
2018-05-18T16:40:45.750Z,74.25
2018-05-18T16:43:14.345Z,74.21
2018-05-18T16:45:40.154Z,73.19
2018-05-18T16:48:06.817Z,74.58
2018-05-18T16:50:33.529Z,73.95
2018-05-18T16:53:02.136Z,74.15
2018-05-18T16:55:29.055Z,74.57
2018-05-18T16:57:55.823Z,74.61
2018-05-18T17:00:22.286Z,73.77
2018-05-18T17:02:49.486Z,73.35
2018-05-18T17:05:17.408Z,74.96
2018-05-18T17:07:47.203Z,74.23
2018-05-18T17:10:14.270Z,73.37
2018-05-18T17:12:41.077Z,73.09
2018-05-18T17:15:08.444Z,72.90
2018-05-18T17:17:37.339Z,73.41
2018-05-18T17:20:04.409Z,73.85
2018-05-18T17:22:31.329Z,74.49
2018-05-18T17:24:58.105Z,73.90
2018-05-18T17:27:27.286Z,74.82
2018-05-18T17:29:53.923Z,73.96
2018-05-18T17:32:20.081Z,74.99
2018-05-18T17:34:46.558Z,74.37
2018-05-18T17:37:12.785Z,75.24
2018-05-18T17:39:39.025Z,74.41
2018-05-18T17:42:04.838Z,74.17
2018-05-18T17:44:31.134Z,73.95
2018-05-18T17:46:56.957Z,72.84
2018-05-18T17:49:23.163Z,74.08
2018-05-18T17:51:49.051Z,74.16
2018-05-18T17:54:15.039Z,74.01
2018-05-18T17:56:40.863Z,74.62
2018-05-18T17:59:06.675Z,75.29
2018-05-18T18:01:32.527Z,74.67
2018-05-18T18:03:58.282Z,75.06
2018-05-18T18:06:24.509Z,74.57
2018-05-18T18:08:50.310Z,74.88
2018-05-18T18:11:16.373Z,74.63
2018-05-18T18:13:42.190Z,74.81
2018-05-18T18:16:07.989Z,75.33
2018-05-18T18:18:33.832Z,74.69
2018-05-18T18:20:59.632Z,74.62
2018-05-18T18:23:25.418Z,75.25
2018-05-18T18:25:51.239Z,75.99
2018-05-18T18:28:17.025Z,76.33
2018-05-18T18:30:42.828Z,76.27
2018-05-18T18:33:08.638Z,75.90
2018-05-18T18:35:34.446Z,74.53
2018-05-18T18:38:00.693Z,74.84
2018-05-18T18:40:26.525Z,75.35
2018-05-18T18:42:52.852Z,75.42
2018-05-18T18:45:19.024Z,75.13
2018-05-18T18:47:45.073Z,74.28
2018-05-18T18:50:10.914Z,74.31
2018-05-18T18:52:36.709Z,74.42
2018-05-18T18:55:02.562Z,74.46
2018-05-18T18:57:28.370Z,74.64
2018-05-18T18:59:54.166Z,74.89
2018-05-18T19:02:19.965Z,75.38
2018-05-18T19:04:45.981Z,75.29
2018-05-18T19:07:11.793Z,75.17
2018-05-18T19:09:37.629Z,75.38
2018-05-18T19:12:03.447Z,75.55
2018-05-18T19:14:29.409Z,75.58
2018-05-18T19:16:55.219Z,75.97
2018-05-18T19:19:21.598Z,76.89
2018-05-18T19:21:48.478Z,75.89
2018-05-18T19:24:14.458Z,74.90
2018-05-18T19:26:40.243Z,75.20
2018-05-18T19:29:06.175Z,74.76
2018-05-18T19:31:32.002Z,75.61
2018-05-18T19:33:58.017Z,76.16
2018-05-18T19:36:23.842Z,76.29
2018-05-18T19:38:49.640Z,75.77
2018-05-18T19:41:15.422Z,76.73
2018-05-18T19:43:41.252Z,75.60
2018-05-18T19:46:07.476Z,76.18
2018-05-18T19:48:33.270Z,76.68
2018-05-18T19:50:59.046Z,77.03
2018-05-18T19:53:24.874Z,76.74
2018-05-18T19:55:50.676Z,76.05
2018-05-18T19:58:16.862Z,75.97
2018-05-18T20:03:15.323Z,76.43
2018-05-18T20:05:41.491Z,76.48
2018-05-18T20:08:07.395Z,76.16
2018-05-18T20:10:33.382Z,75.70
2018-05-18T20:12:59.174Z,75.81
2018-05-18T20:15:25.115Z,76.33
2018-05-18T20:17:50.904Z,76.18
2018-05-18T20:20:16.686Z,76.12
2018-05-18T20:22:42.605Z,76.90
2018-05-18T20:25:08.481Z,77.17
2018-05-18T20:27:34.590Z,77.03
2018-05-18T20:30:00.400Z,77.40
2018-05-18T20:32:26.334Z,78.05
2018-05-18T20:34:52.158Z,77.94
2018-05-18T20:37:18.053Z,77.88
2018-05-18T20:39:43.879Z,77.66
2018-05-18T20:42:09.877Z,77.11
2018-05-18T20:44:35.669Z,77.50
2018-05-18T20:47:01.502Z,76.89
2018-05-18T20:49:27.310Z,77.02
2018-05-18T20:51:53.112Z,77.55
2018-05-18T20:54:19.355Z,77.58
2018-05-18T20:56:45.149Z,77.81
2018-05-18T20:59:11.218Z,77.98
2018-05-18T21:01:37.050Z,78.01
2018-05-18T21:04:02.946Z,78.16
2018-05-18T21:06:28.772Z,78.72
2018-05-18T21:08:54.581Z,78.87
2018-05-18T21:11:20.529Z,79.03
2018-05-18T21:13:46.332Z,78.75
2018-05-18T21:16:12.151Z,79.46
2018-05-18T21:18:37.990Z,79.34
2018-05-18T21:21:03.782Z,79.76
2018-05-18T21:23:29.601Z,78.69
2018-05-18T21:25:55.400Z,78.55
2018-05-18T21:28:21.270Z,77.23
2018-05-18T21:30:48.154Z,79.85
2018-05-18T21:33:13.952Z,79.74
2018-05-18T21:35:39.737Z,78.11
2018-05-18T21:38:05.973Z,77.65
2018-05-18T21:40:31.777Z,78.87
2018-05-18T21:42:57.823Z,79.17
2018-05-18T21:45:23.562Z,78.58
2018-05-18T21:47:49.369Z,78.53
2018-05-18T21:50:15.157Z,78.67
2018-05-18T21:52:42.057Z,79.07
2018-05-18T21:55:07.916Z,78.60
2018-05-18T21:57:33.740Z,78.62
2018-05-18T21:59:59.724Z,78.79
2018-05-18T22:02:25.513Z,78.73
2018-05-18T22:04:51.320Z,78.98
2018-05-18T22:07:17.131Z,78.74
2018-05-18T22:09:42.914Z,78.73
2018-05-18T22:12:09.278Z,79.23
2018-05-18T22:14:35.057Z,79.58
2018-05-18T22:17:01.009Z,79.08
2018-05-18T22:19:26.853Z,79.52
2018-05-18T22:21:52.705Z,79.57
2018-05-18T22:24:18.550Z,79.40
2018-05-18T22:26:44.335Z,79.28
2018-05-18T22:29:10.134Z,79.93
2018-05-18T22:31:35.930Z,79.67
2018-05-18T22:34:01.900Z,79.83
2018-05-18T22:36:27.746Z,79.29
2018-05-18T22:38:53.678Z,79.86
2018-05-18T22:41:19.485Z,79.95
2018-05-18T22:43:45.275Z,80.41
2018-05-18T22:46:11.057Z,80.82
2018-05-18T22:48:36.860Z,80.67
2018-05-18T22:51:02.661Z,80.61
2018-05-18T22:53:28.467Z,80.74
2018-05-18T22:55:54.274Z,81.37
2018-05-18T22:58:20.072Z,81.39
2018-05-18T23:00:45.859Z,81.20
2018-05-18T23:03:11.835Z,80.46
2018-05-18T23:05:37.623Z,80.27
2018-05-18T23:08:03.404Z,80.76
2018-05-18T23:10:29.201Z,80.70
2018-05-18T23:12:54.997Z,80.85
2018-05-18T23:15:20.790Z,81.21
2018-05-18T23:17:46.590Z,80.92
2018-05-18T23:20:12.380Z,80.95
2018-05-18T23:22:38.171Z,80.84
2018-05-18T23:25:03.970Z,80.73
2018-05-18T23:27:29.775Z,81.27
2018-05-18T23:29:55.607Z,81.29
2018-05-18T23:32:21.388Z,80.73
2018-05-18T23:34:47.189Z,81.66
2018-05-18T23:37:12.982Z,81.44
2018-05-18T23:39:38.764Z,82.73
2018-05-18T23:42:04.563Z,80.87
2018-05-18T23:44:30.359Z,80.89
2018-05-18T23:46:56.142Z,80.57
2018-05-18T23:49:21.949Z,80.05
2018-05-18T23:51:47.741Z,77.76
2018-05-18T23:54:13.524Z,77.90
2018-05-18T23:56:39.340Z,78.83
2018-05-18T23:59:05.117Z,78.12
